Grover, South Dakota
Current Conditions -  °F | °C
As of 6:53 PM on Monday 26 Jan 2015 (Local Time) from KATY Reporting Station
Clear Clear  
Wind Chill: 30°   Ceiling: Unl
Heat Index: 35°   Visibility: 10mi
Dew Point: 31°   Wind: 6mph
Humidity: 85%   Direction: 330°NNW
Pressure: 29.96"   Gusts: NA
Location:  44.9156°N, 97.1699°W
Report Text: KATY 270053Z AUTO 33005KT 10SM CLR 02/M01 A2996 RMK AO2 SLP162 T00171006
Loading
Personal Weather Stations






























Interactive Weather Map New forecast layout! Learn more

10-Day Weather Forecast

Advertisements
Track Severe Weather on mobile